sensor_id;sensor_type;location;lat;lon;timestamp;P1;durP1;ratioP1;P2;durP2;ratioP2
44486;SDS011;30191;50.908;6.962;2022-11-15T00:00:53;8.00;;;5.80;;
44486;SDS011;30191;50.908;6.962;2022-11-15T00:03:20;8.25;;;5.68;;
44486;SDS011;30191;50.908;6.962;2022-11-15T00:05:47;7.30;;;5.50;;
44486;SDS011;30191;50.908;6.962;2022-11-15T00:08:13;10.07;;;5.70;;
44486;SDS011;30191;50.908;6.962;2022-11-15T00:10:39;7.03;;;5.63;;
44486;SDS011;30191;50.908;6.962;2022-11-15T00:13:08;7.78;;;6.07;;
44486;SDS011;30191;50.908;6.962;2022-11-15T00:15:39;9.90;;;5.82;;
44486;SDS011;30191;50.908;6.962;2022-11-15T00:18:06;8.70;;;5.75;;
44486;SDS011;30191;50.908;6.962;2022-11-15T00:20:36;7.68;;;5.75;;
44486;SDS011;30191;50.908;6.962;2022-11-15T00:23:05;7.53;;;5.88;;
44486;SDS011;30191;50.908;6.962;2022-11-15T00:25:32;7.35;;;5.82;;
44486;SDS011;30191;50.908;6.962;2022-11-15T00:27:58;8.55;;;5.95;;
44486;SDS011;30191;50.908;6.962;2022-11-15T00:30:24;7.28;;;6.07;;
44486;SDS011;30191;50.908;6.962;2022-11-15T00:32:50;9.65;;;6.10;;
44486;SDS011;30191;50.908;6.962;2022-11-15T00:35:16;9.02;;;6.13;;
44486;SDS011;30191;50.908;6.962;2022-11-15T00:37:42;8.82;;;6.13;;
44486;SDS011;30191;50.908;6.962;2022-11-15T00:40:08;7.93;;;5.70;;
44486;SDS011;30191;50.908;6.962;2022-11-15T00:42:34;9.95;;;6.10;;
44486;SDS011;30191;50.908;6.962;2022-11-15T00:45:00;8.82;;;6.53;;
44486;SDS011;30191;50.908;6.962;2022-11-15T00:47:26;9.35;;;5.97;;
44486;SDS011;30191;50.908;6.962;2022-11-15T00:49:52;7.30;;;5.93;;
44486;SDS011;30191;50.908;6.962;2022-11-15T00:52:18;9.65;;;5.93;;
44486;SDS011;30191;50.908;6.962;2022-11-15T00:54:43;7.55;;;6.35;;
44486;SDS011;30191;50.908;6.962;2022-11-15T00:57:09;8.35;;;6.28;;
44486;SDS011;30191;50.908;6.962;2022-11-15T00:59:35;9.02;;;5.70;;
44486;SDS011;30191;50.908;6.962;2022-11-15T01:02:00;7.82;;;6.28;;
44486;SDS011;30191;50.908;6.962;2022-11-15T01:04:26;10.77;;;6.10;;
44486;SDS011;30191;50.908;6.962;2022-11-15T01:06:52;8.38;;;5.72;;
44486;SDS011;30191;50.908;6.962;2022-11-15T01:09:18;10.93;;;6.68;;
44486;SDS011;30191;50.908;6.962;2022-11-15T01:11:43;9.50;;;6.18;;
44486;SDS011;30191;50.908;6.962;2022-11-15T01:14:09;10.40;;;6.00;;
44486;SDS011;30191;50.908;6.962;2022-11-15T01:16:35;9.20;;;6.13;;
44486;SDS011;30191;50.908;6.962;2022-11-15T01:19:01;7.32;;;6.03;;
44486;SDS011;30191;50.908;6.962;2022-11-15T01:21:27;8.32;;;6.15;;
44486;SDS011;30191;50.908;6.962;2022-11-15T01:23:54;8.73;;;6.28;;
44486;SDS011;30191;50.908;6.962;2022-11-15T01:26:20;9.63;;;6.38;;
44486;SDS011;30191;50.908;6.962;2022-11-15T01:28:46;9.65;;;6.25;;
44486;SDS011;30191;50.908;6.962;2022-11-15T01:31:16;9.68;;;6.10;;
44486;SDS011;30191;50.908;6.962;2022-11-15T01:33:44;7.20;;;6.20;;
44486;SDS011;30191;50.908;6.962;2022-11-15T01:36:11;8.63;;;6.35;;
44486;SDS011;30191;50.908;6.962;2022-11-15T01:38:47;9.73;;;5.95;;
44486;SDS011;30191;50.908;6.962;2022-11-15T01:41:20;10.98;;;7.20;;
44486;SDS011;30191;50.908;6.962;2022-11-15T01:43:55;8.40;;;6.25;;
44486;SDS011;30191;50.908;6.962;2022-11-15T01:49:01;10.38;;;6.63;;
44486;SDS011;30191;50.908;6.962;2022-11-15T01:51:34;10.10;;;6.25;;
44486;SDS011;30191;50.908;6.962;2022-11-15T01:54:02;10.52;;;6.57;;
44486;SDS011;30191;50.908;6.962;2022-11-15T01:56:32;11.13;;;6.47;;
44486;SDS011;30191;50.908;6.962;2022-11-15T01:59:22;8.85;;;6.35;;
44486;SDS011;30191;50.908;6.962;2022-11-15T02:01:48;7.80;;;5.80;;
44486;SDS011;30191;50.908;6.962;2022-11-15T02:04:22;10.25;;;6.57;;
44486;SDS011;30191;50.908;6.962;2022-11-15T02:06:49;7.65;;;6.30;;
44486;SDS011;30191;50.908;6.962;2022-11-15T02:09:15;7.28;;;6.22;;
44486;SDS011;30191;50.908;6.962;2022-11-15T02:11:42;10.13;;;6.38;;
44486;SDS011;30191;50.908;6.962;2022-11-15T02:14:10;8.45;;;6.15;;
44486;SDS011;30191;50.908;6.962;2022-11-15T02:32:52;9.30;;;6.40;;
44486;SDS011;30191;50.908;6.962;2022-11-15T02:35:28;11.95;;;5.90;;
44486;SDS011;30191;50.908;6.962;2022-11-15T02:46:40;8.43;;;5.97;;
44486;SDS011;30191;50.908;6.962;2022-11-15T02:49:27;6.03;;;5.43;;
44486;SDS011;30191;50.908;6.962;2022-11-15T02:51:56;8.25;;;5.65;;
44486;SDS011;30191;50.908;6.962;2022-11-15T02:54:22;10.23;;;5.90;;
44486;SDS011;30191;50.908;6.962;2022-11-15T02:56:51;8.90;;;6.00;;
44486;SDS011;30191;50.908;6.962;2022-11-15T02:59:43;6.35;;;5.43;;
44486;SDS011;30191;50.908;6.962;2022-11-15T03:02:12;7.00;;;4.90;;
44486;SDS011;30191;50.908;6.962;2022-11-15T03:07:35;8.73;;;5.32;;
44486;SDS011;30191;50.908;6.962;2022-11-15T03:10:21;6.93;;;5.00;;
44486;SDS011;30191;50.908;6.962;2022-11-15T03:15:53;6.70;;;4.90;;
44486;SDS011;30191;50.908;6.962;2022-11-15T03:18:43;7.05;;;4.78;;
44486;SDS011;30191;50.908;6.962;2022-11-15T03:21:15;5.55;;;4.45;;
44486;SDS011;30191;50.908;6.962;2022-11-15T03:23:43;5.20;;;4.72;;
44486;SDS011;30191;50.908;6.962;2022-11-15T03:26:12;5.25;;;4.72;;
44486;SDS011;30191;50.908;6.962;2022-11-15T03:28:43;6.32;;;4.93;;
44486;SDS011;30191;50.908;6.962;2022-11-15T03:31:18;5.60;;;4.80;;
44486;SDS011;30191;50.908;6.962;2022-11-15T03:34:05;5.47;;;4.97;;
44486;SDS011;30191;50.908;6.962;2022-11-15T03:36:34;5.22;;;4.72;;
44486;SDS011;30191;50.908;6.962;2022-11-15T03:39:02;5.57;;;4.97;;
44486;SDS011;30191;50.908;6.962;2022-11-15T03:44:47;7.60;;;5.30;;
44486;SDS011;30191;50.908;6.962;2022-11-15T03:47:20;5.43;;;4.63;;
44486;SDS011;30191;50.908;6.962;2022-11-15T03:50:12;7.32;;;4.93;;
44486;SDS011;30191;50.908;6.962;2022-11-15T03:52:41;6.32;;;5.30;;
44486;SDS011;30191;50.908;6.962;2022-11-15T03:55:10;6.50;;;5.00;;
44486;SDS011;30191;50.908;6.962;2022-11-15T03:57:38;6.18;;;4.88;;
44486;SDS011;30191;50.908;6.962;2022-11-15T04:00:04;6.72;;;5.20;;
44486;SDS011;30191;50.908;6.962;2022-11-15T04:02:30;6.57;;;4.95;;
44486;SDS011;30191;50.908;6.962;2022-11-15T04:04:56;6.57;;;5.07;;
44486;SDS011;30191;50.908;6.962;2022-11-15T04:07:22;6.70;;;5.00;;
44486;SDS011;30191;50.908;6.962;2022-11-15T04:09:47;5.65;;;5.00;;
44486;SDS011;30191;50.908;6.962;2022-11-15T04:12:35;5.97;;;5.28;;
44486;SDS011;30191;50.908;6.962;2022-11-15T04:17:43;5.97;;;5.38;;
44486;SDS011;30191;50.908;6.962;2022-11-15T04:20:10;6.97;;;5.22;;
44486;SDS011;30191;50.908;6.962;2022-11-15T04:22:59;6.10;;;5.50;;
44486;SDS011;30191;50.908;6.962;2022-11-15T04:25:44;6.80;;;4.90;;
44486;SDS011;30191;50.908;6.962;2022-11-15T04:28:10;8.82;;;5.20;;
44486;SDS011;30191;50.908;6.962;2022-11-15T04:30:37;5.25;;;4.72;;
44486;SDS011;30191;50.908;6.962;2022-11-15T04:33:03;5.15;;;4.75;;
44486;SDS011;30191;50.908;6.962;2022-11-15T04:35:29;6.35;;;4.78;;
44486;SDS011;30191;50.908;6.962;2022-11-15T04:37:55;6.28;;;4.75;;
44486;SDS011;30191;50.908;6.962;2022-11-15T04:40:22;5.10;;;4.40;;
44486;SDS011;30191;50.908;6.962;2022-11-15T04:42:47;5.50;;;4.72;;
44486;SDS011;30191;50.908;6.962;2022-11-15T04:45:13;7.00;;;5.13;;
44486;SDS011;30191;50.908;6.962;2022-11-15T04:47:39;5.75;;;4.80;;
44486;SDS011;30191;50.908;6.962;2022-11-15T04:50:05;4.88;;;4.38;;
44486;SDS011;30191;50.908;6.962;2022-11-15T04:52:31;5.47;;;4.60;;
44486;SDS011;30191;50.908;6.962;2022-11-15T04:54:56;5.82;;;4.60;;
44486;SDS011;30191;50.908;6.962;2022-11-15T04:57:22;4.93;;;4.43;;
44486;SDS011;30191;50.908;6.962;2022-11-15T04:59:47;5.13;;;4.35;;
44486;SDS011;30191;50.908;6.962;2022-11-15T05:02:13;5.82;;;3.95;;
44486;SDS011;30191;50.908;6.962;2022-11-15T05:04:39;5.53;;;5.05;;
44486;SDS011;30191;50.908;6.962;2022-11-15T05:07:04;6.70;;;4.45;;
44486;SDS011;30191;50.908;6.962;2022-11-15T05:09:30;8.00;;;4.30;;
44486;SDS011;30191;50.908;6.962;2022-11-15T05:11:56;4.97;;;4.47;;
44486;SDS011;30191;50.908;6.962;2022-11-15T05:14:21;4.50;;;3.97;;
44486;SDS011;30191;50.908;6.962;2022-11-15T05:16:47;5.10;;;4.60;;
44486;SDS011;30191;50.908;6.962;2022-11-15T05:19:13;4.88;;;4.30;;
44486;SDS011;30191;50.908;6.962;2022-11-15T05:21:39;4.28;;;3.90;;
44486;SDS011;30191;50.908;6.962;2022-11-15T05:24:05;5.22;;;4.68;;
44486;SDS011;30191;50.908;6.962;2022-11-15T05:26:31;5.40;;;4.55;;
44486;SDS011;30191;50.908;6.962;2022-11-15T05:28:57;6.45;;;5.80;;
44486;SDS011;30191;50.908;6.962;2022-11-15T05:31:24;4.35;;;3.92;;
44486;SDS011;30191;50.908;6.962;2022-11-15T05:33:51;4.53;;;4.03;;
44486;SDS011;30191;50.908;6.962;2022-11-15T05:39:05;5.65;;;3.88;;
44486;SDS011;30191;50.908;6.962;2022-11-15T05:41:34;4.50;;;3.92;;
44486;SDS011;30191;50.908;6.962;2022-11-15T05:44:05;5.03;;;3.80;;
44486;SDS011;30191;50.908;6.962;2022-11-15T05:46:33;3.95;;;3.65;;
44486;SDS011;30191;50.908;6.962;2022-11-15T05:49:00;3.85;;;3.45;;
44486;SDS011;30191;50.908;6.962;2022-11-15T05:51:26;4.53;;;4.10;;
44486;SDS011;30191;50.908;6.962;2022-11-15T05:53:54;4.25;;;3.60;;
44486;SDS011;30191;50.908;6.962;2022-11-15T05:56:23;5.55;;;3.88;;
44486;SDS011;30191;50.908;6.962;2022-11-15T05:58:50;4.93;;;3.92;;
44486;SDS011;30191;50.908;6.962;2022-11-15T06:01:18;4.40;;;3.83;;
44486;SDS011;30191;50.908;6.962;2022-11-15T06:03:43;4.00;;;3.28;;
44486;SDS011;30191;50.908;6.962;2022-11-15T06:06:09;5.03;;;4.53;;
44486;SDS011;30191;50.908;6.962;2022-11-15T06:08:35;4.28;;;3.88;;
44486;SDS011;30191;50.908;6.962;2022-11-15T06:11:04;3.70;;;3.25;;
44486;SDS011;30191;50.908;6.962;2022-11-15T06:13:30;4.05;;;3.22;;
44486;SDS011;30191;50.908;6.962;2022-11-15T06:15:57;3.60;;;3.28;;
44486;SDS011;30191;50.908;6.962;2022-11-15T06:18:22;4.30;;;3.20;;
44486;SDS011;30191;50.908;6.962;2022-11-15T06:20:48;3.78;;;3.40;;
44486;SDS011;30191;50.908;6.962;2022-11-15T06:23:14;3.67;;;3.33;;
44486;SDS011;30191;50.908;6.962;2022-11-15T06:25:39;4.25;;;3.05;;
44486;SDS011;30191;50.908;6.962;2022-11-15T06:28:05;3.45;;;3.10;;
44486;SDS011;30191;50.908;6.962;2022-11-15T06:30:31;3.53;;;2.80;;
44486;SDS011;30191;50.908;6.962;2022-11-15T06:33:00;3.30;;;3.00;;
44486;SDS011;30191;50.908;6.962;2022-11-15T06:35:27;7.45;;;2.95;;
44486;SDS011;30191;50.908;6.962;2022-11-15T06:37:53;3.92;;;3.10;;
44486;SDS011;30191;50.908;6.962;2022-11-15T06:40:18;3.45;;;2.72;;
44486;SDS011;30191;50.908;6.962;2022-11-15T06:42:44;3.55;;;2.70;;
44486;SDS011;30191;50.908;6.962;2022-11-15T06:45:10;3.00;;;2.80;;
44486;SDS011;30191;50.908;6.962;2022-11-15T06:47:35;3.25;;;2.75;;
44486;SDS011;30191;50.908;6.962;2022-11-15T06:50:08;5.35;;;2.90;;
44486;SDS011;30191;50.908;6.962;2022-11-15T06:52:34;4.60;;;2.67;;
44486;SDS011;30191;50.908;6.962;2022-11-15T06:55:00;5.40;;;2.63;;
44486;SDS011;30191;50.908;6.962;2022-11-15T06:57:25;4.82;;;2.50;;
44486;SDS011;30191;50.908;6.962;2022-11-15T06:59:51;4.82;;;2.88;;
44486;SDS011;30191;50.908;6.962;2022-11-15T07:02:16;4.65;;;2.97;;
44486;SDS011;30191;50.908;6.962;2022-11-15T07:04:42;4.35;;;2.88;;
44486;SDS011;30191;50.908;6.962;2022-11-15T07:07:08;2.72;;;2.50;;
44486;SDS011;30191;50.908;6.962;2022-11-15T07:09:34;3.90;;;2.45;;
44486;SDS011;30191;50.908;6.962;2022-11-15T07:12:00;3.72;;;2.50;;
44486;SDS011;30191;50.908;6.962;2022-11-15T07:14:25;4.93;;;3.30;;
44486;SDS011;30191;50.908;6.962;2022-11-15T07:16:51;4.72;;;3.10;;
44486;SDS011;30191;50.908;6.962;2022-11-15T07:19:16;3.70;;;3.30;;
44486;SDS011;30191;50.908;6.962;2022-11-15T07:21:42;4.95;;;2.60;;
44486;SDS011;30191;50.908;6.962;2022-11-15T07:24:08;5.55;;;2.10;;
44486;SDS011;30191;50.908;6.962;2022-11-15T07:26:33;3.35;;;2.55;;
44486;SDS011;30191;50.908;6.962;2022-11-15T07:28:59;8.60;;;2.70;;
44486;SDS011;30191;50.908;6.962;2022-11-15T07:31:25;2.70;;;1.95;;
44486;SDS011;30191;50.908;6.962;2022-11-15T07:33:50;2.83;;;2.35;;
44486;SDS011;30191;50.908;6.962;2022-11-15T07:36:16;3.90;;;2.20;;
44486;SDS011;30191;50.908;6.962;2022-11-15T07:38:42;2.85;;;2.30;;
44486;SDS011;30191;50.908;6.962;2022-11-15T07:41:07;5.15;;;2.10;;
44486;SDS011;30191;50.908;6.962;2022-11-15T07:43:33;4.18;;;2.08;;
44486;SDS011;30191;50.908;6.962;2022-11-15T07:46:04;3.55;;;1.95;;
44486;SDS011;30191;50.908;6.962;2022-11-15T07:50:56;2.80;;;1.70;;
44486;SDS011;30191;50.908;6.962;2022-11-15T07:53:22;3.10;;;1.55;;
44486;SDS011;30191;50.908;6.962;2022-11-15T07:55:47;2.65;;;1.52;;
44486;SDS011;30191;50.908;6.962;2022-11-15T07:58:13;2.38;;;1.27;;
44486;SDS011;30191;50.908;6.962;2022-11-15T08:00:38;5.95;;;2.17;;
44486;SDS011;30191;50.908;6.962;2022-11-15T08:03:05;4.22;;;2.38;;
44486;SDS011;30191;50.908;6.962;2022-11-15T08:05:38;4.55;;;2.30;;
44486;SDS011;30191;50.908;6.962;2022-11-15T08:08:05;4.90;;;1.50;;
44486;SDS011;30191;50.908;6.962;2022-11-15T08:10:32;2.53;;;1.70;;
44486;SDS011;30191;50.908;6.962;2022-11-15T08:13:03;2.28;;;1.67;;
44486;SDS011;30191;50.908;6.962;2022-11-15T08:15:31;2.88;;;1.80;;
44486;SDS011;30191;50.908;6.962;2022-11-15T08:17:58;5.47;;;2.17;;
44486;SDS011;30191;50.908;6.962;2022-11-15T08:20:31;3.88;;;2.55;;
44486;SDS011;30191;50.908;6.962;2022-11-15T08:22:58;3.92;;;1.73;;
44486;SDS011;30191;50.908;6.962;2022-11-15T08:25:25;2.08;;;1.40;;
44486;SDS011;30191;50.908;6.962;2022-11-15T08:27:52;2.55;;;1.15;;
44486;SDS011;30191;50.908;6.962;2022-11-15T08:30:19;3.85;;;1.70;;
44486;SDS011;30191;50.908;6.962;2022-11-15T08:32:45;3.78;;;1.70;;
44486;SDS011;30191;50.908;6.962;2022-11-15T08:35:11;1.13;;;1.02;;
44486;SDS011;30191;50.908;6.962;2022-11-15T08:37:36;2.20;;;1.50;;
44486;SDS011;30191;50.908;6.962;2022-11-15T08:40:03;4.30;;;1.60;;
44486;SDS011;30191;50.908;6.962;2022-11-15T08:42:29;3.00;;;2.30;;
44486;SDS011;30191;50.908;6.962;2022-11-15T08:44:54;4.88;;;2.13;;
44486;SDS011;30191;50.908;6.962;2022-11-15T08:47:20;2.50;;;1.65;;
44486;SDS011;30191;50.908;6.962;2022-11-15T08:49:46;3.60;;;1.70;;
44486;SDS011;30191;50.908;6.962;2022-11-15T08:52:11;1.80;;;1.50;;
44486;SDS011;30191;50.908;6.962;2022-11-15T08:54:38;4.43;;;1.20;;
44486;SDS011;30191;50.908;6.962;2022-11-15T08:57:03;1.67;;;1.23;;
44486;SDS011;30191;50.908;6.962;2022-11-15T08:59:29;3.13;;;1.40;;
44486;SDS011;30191;50.908;6.962;2022-11-15T09:01:55;6.07;;;1.55;;
44486;SDS011;30191;50.908;6.962;2022-11-15T09:04:20;6.15;;;1.80;;
44486;SDS011;30191;50.908;6.962;2022-11-15T09:06:46;2.78;;;1.73;;
44486;SDS011;30191;50.908;6.962;2022-11-15T09:09:12;5.65;;;1.58;;
44486;SDS011;30191;50.908;6.962;2022-11-15T09:11:37;1.70;;;1.20;;
44486;SDS011;30191;50.908;6.962;2022-11-15T09:14:03;3.08;;;1.70;;
44486;SDS011;30191;50.908;6.962;2022-11-15T09:16:30;2.33;;;1.65;;
44486;SDS011;30191;50.908;6.962;2022-11-15T09:18:55;3.40;;;1.52;;
44486;SDS011;30191;50.908;6.962;2022-11-15T09:21:21;2.40;;;1.48;;
44486;SDS011;30191;50.908;6.962;2022-11-15T09:23:49;4.75;;;1.30;;
44486;SDS011;30191;50.908;6.962;2022-11-15T09:26:17;2.17;;;1.20;;
44486;SDS011;30191;50.908;6.962;2022-11-15T09:28:43;2.38;;;1.30;;
44486;SDS011;30191;50.908;6.962;2022-11-15T09:31:08;2.90;;;1.30;;
44486;SDS011;30191;50.908;6.962;2022-11-15T09:33:35;3.22;;;0.90;;
44486;SDS011;30191;50.908;6.962;2022-11-15T09:36:01;3.75;;;1.10;;
44486;SDS011;30191;50.908;6.962;2022-11-15T09:38:29;2.28;;;0.90;;
44486;SDS011;30191;50.908;6.962;2022-11-15T09:40:59;2.25;;;0.90;;
44486;SDS011;30191;50.908;6.962;2022-11-15T09:46:15;2.65;;;1.02;;
44486;SDS011;30191;50.908;6.962;2022-11-15T09:48:56;2.40;;;0.77;;
44486;SDS011;30191;50.908;6.962;2022-11-15T09:54:05;2.40;;;0.75;;
44486;SDS011;30191;50.908;6.962;2022-11-15T09:56:40;2.70;;;0.90;;
44486;SDS011;30191;50.908;6.962;2022-11-15T10:04:33;2.08;;;0.82;;
44486;SDS011;30191;50.908;6.962;2022-11-15T10:09:41;2.83;;;1.00;;
44486;SDS011;30191;50.908;6.962;2022-11-15T10:12:23;6.90;;;0.77;;
44486;SDS011;30191;50.908;6.962;2022-11-15T10:14:57;2.05;;;1.00;;
44486;SDS011;30191;50.908;6.962;2022-11-15T10:20:49;2.55;;;0.50;;
44486;SDS011;30191;50.908;6.962;2022-11-15T10:23:13;1.27;;;0.50;;
44486;SDS011;30191;50.908;6.962;2022-11-15T10:25:41;2.38;;;0.70;;
44486;SDS011;30191;50.908;6.962;2022-11-15T10:28:13;1.48;;;0.65;;
44486;SDS011;30191;50.908;6.962;2022-11-15T10:30:46;3.40;;;0.70;;
44486;SDS011;30191;50.908;6.962;2022-11-15T10:43:44;2.00;;;0.70;;
44486;SDS011;30191;50.908;6.962;2022-11-15T10:46:20;3.17;;;0.70;;
44486;SDS011;30191;50.908;6.962;2022-11-15T10:48:47;1.40;;;0.70;;
44486;SDS011;30191;50.908;6.962;2022-11-15T10:51:20;2.25;;;0.82;;
44486;SDS011;30191;50.908;6.962;2022-11-15T10:53:53;2.67;;;0.80;;
44486;SDS011;30191;50.908;6.962;2022-11-15T10:56:22;1.63;;;0.55;;
44486;SDS011;30191;50.908;6.962;2022-11-15T10:58:51;2.50;;;0.68;;
44486;SDS011;30191;50.908;6.962;2022-11-15T11:01:24;2.95;;;0.80;;
44486;SDS011;30191;50.908;6.962;2022-11-15T11:06:26;2.63;;;0.77;;
44486;SDS011;30191;50.908;6.962;2022-11-15T11:08:56;2.22;;;0.40;;
44486;SDS011;30191;50.908;6.962;2022-11-15T11:11:24;1.48;;;0.50;;
44486;SDS011;30191;50.908;6.962;2022-11-15T11:14:11;4.00;;;0.57;;
44486;SDS011;30191;50.908;6.962;2022-11-15T11:16:42;2.92;;;0.50;;
44486;SDS011;30191;50.908;6.962;2022-11-15T11:37:33;2.58;;;0.50;;
44486;SDS011;30191;50.908;6.962;2022-11-15T11:47:39;3.10;;;0.60;;
44486;SDS011;30191;50.908;6.962;2022-11-15T11:50:18;2.30;;;0.55;;
44486;SDS011;30191;50.908;6.962;2022-11-15T11:55:41;2.83;;;0.80;;
44486;SDS011;30191;50.908;6.962;2022-11-15T11:58:12;3.25;;;0.70;;
44486;SDS011;30191;50.908;6.962;2022-11-15T12:11:50;2.58;;;0.63;;
44486;SDS011;30191;50.908;6.962;2022-11-15T12:14:24;2.25;;;0.52;;
44486;SDS011;30191;50.908;6.962;2022-11-15T12:17:25;4.05;;;0.57;;
44486;SDS011;30191;50.908;6.962;2022-11-15T12:19:57;2.50;;;0.73;;
44486;SDS011;30191;50.908;6.962;2022-11-15T12:27:49;3.55;;;0.60;;
44486;SDS011;30191;50.908;6.962;2022-11-15T12:30:19;3.25;;;0.70;;
44486;SDS011;30191;50.908;6.962;2022-11-15T12:32:57;2.83;;;0.70;;
44486;SDS011;30191;50.908;6.962;2022-11-15T12:38:03;1.45;;;0.50;;
44486;SDS011;30191;50.908;6.962;2022-11-15T12:40:35;2.20;;;0.50;;
44486;SDS011;30191;50.908;6.962;2022-11-15T12:58:39;4.03;;;0.68;;
44486;SDS011;30191;50.908;6.962;2022-11-15T13:01:06;6.75;;;0.80;;
44486;SDS011;30191;50.908;6.962;2022-11-15T13:03:32;5.00;;;0.93;;
44486;SDS011;30191;50.908;6.962;2022-11-15T13:06:00;7.82;;;0.93;;
44486;SDS011;30191;50.908;6.962;2022-11-15T13:08:41;1.25;;;0.57;;
44486;SDS011;30191;50.908;6.962;2022-11-15T13:17:39;1.88;;;0.90;;
44486;SDS011;30191;50.908;6.962;2022-11-15T13:20:08;3.50;;;0.88;;
44486;SDS011;30191;50.908;6.962;2022-11-15T13:22:45;2.55;;;1.30;;
44486;SDS011;30191;50.908;6.962;2022-11-15T13:28:21;3.70;;;1.40;;
44486;SDS011;30191;50.908;6.962;2022-11-15T13:30:53;2.30;;;1.25;;
44486;SDS011;30191;50.908;6.962;2022-11-15T13:33:24;3.05;;;1.60;;
44486;SDS011;30191;50.908;6.962;2022-11-15T13:35:51;3.63;;;1.40;;
44486;SDS011;30191;50.908;6.962;2022-11-15T13:38:25;2.30;;;1.55;;
44486;SDS011;30191;50.908;6.962;2022-11-15T13:41:21;2.50;;;1.42;;
44486;SDS011;30191;50.908;6.962;2022-11-15T13:43:49;4.05;;;1.30;;
44486;SDS011;30191;50.908;6.962;2022-11-15T13:49:02;2.70;;;1.30;;
44486;SDS011;30191;50.908;6.962;2022-11-15T14:01:57;2.25;;;1.23;;
44486;SDS011;30191;50.908;6.962;2022-11-15T14:04:26;3.63;;;1.27;;
44486;SDS011;30191;50.908;6.962;2022-11-15T14:06:55;2.45;;;1.30;;
44486;SDS011;30191;50.908;6.962;2022-11-15T14:09:31;2.03;;;1.30;;
44486;SDS011;30191;50.908;6.962;2022-11-15T14:12:49;3.42;;;1.20;;
44486;SDS011;30191;50.908;6.962;2022-11-15T14:14:57;1.75;;;1.40;;
44486;SDS011;30191;50.908;6.962;2022-11-15T14:19:56;2.63;;;1.50;;
44486;SDS011;30191;50.908;6.962;2022-11-15T14:22:26;3.90;;;1.48;;
44486;SDS011;30191;50.908;6.962;2022-11-15T14:27:44;4.45;;;1.73;;
44486;SDS011;30191;50.908;6.962;2022-11-15T14:30:49;2.03;;;1.30;;
44486;SDS011;30191;50.908;6.962;2022-11-15T14:33:24;3.47;;;1.50;;
44486;SDS011;30191;50.908;6.962;2022-11-15T14:35:56;4.10;;;1.67;;
44486;SDS011;30191;50.908;6.962;2022-11-15T14:38:23;5.30;;;1.58;;
44486;SDS011;30191;50.908;6.962;2022-11-15T14:40:50;4.10;;;1.42;;
44486;SDS011;30191;50.908;6.962;2022-11-15T14:43:16;3.33;;;1.40;;
44486;SDS011;30191;50.908;6.962;2022-11-15T14:45:41;3.88;;;2.25;;
44486;SDS011;30191;50.908;6.962;2022-11-15T14:48:07;3.35;;;1.50;;
44486;SDS011;30191;50.908;6.962;2022-11-15T14:50:33;3.22;;;1.58;;
44486;SDS011;30191;50.908;6.962;2022-11-15T14:53:00;3.72;;;1.35;;
44486;SDS011;30191;50.908;6.962;2022-11-15T14:55:27;4.00;;;2.17;;
44486;SDS011;30191;50.908;6.962;2022-11-15T14:57:59;4.47;;;1.42;;
44486;SDS011;30191;50.908;6.962;2022-11-15T15:00:27;3.85;;;1.30;;
44486;SDS011;30191;50.908;6.962;2022-11-15T15:02:53;5.68;;;1.75;;
44486;SDS011;30191;50.908;6.962;2022-11-15T15:07:44;1.70;;;1.20;;
44486;SDS011;30191;50.908;6.962;2022-11-15T15:10:10;6.40;;;0.93;;
44486;SDS011;30191;50.908;6.962;2022-11-15T15:12:37;1.00;;;0.88;;
44486;SDS011;30191;50.908;6.962;2022-11-15T15:15:03;2.88;;;1.20;;
44486;SDS011;30191;50.908;6.962;2022-11-15T15:17:29;4.85;;;1.30;;
44486;SDS011;30191;50.908;6.962;2022-11-15T15:19:55;3.78;;;1.13;;
44486;SDS011;30191;50.908;6.962;2022-11-15T15:22:21;2.10;;;1.10;;
44486;SDS011;30191;50.908;6.962;2022-11-15T15:24:50;2.85;;;0.90;;
44486;SDS011;30191;50.908;6.962;2022-11-15T15:27:16;2.42;;;1.00;;
44486;SDS011;30191;50.908;6.962;2022-11-15T15:29:42;4.53;;;1.13;;
44486;SDS011;30191;50.908;6.962;2022-11-15T15:32:08;4.13;;;1.10;;
44486;SDS011;30191;50.908;6.962;2022-11-15T15:34:35;3.63;;;1.17;;
44486;SDS011;30191;50.908;6.962;2022-11-15T15:39:38;1.58;;;0.85;;
44486;SDS011;30191;50.908;6.962;2022-11-15T15:42:04;2.90;;;0.90;;
44486;SDS011;30191;50.908;6.962;2022-11-15T15:44:29;3.53;;;1.40;;
44486;SDS011;30191;50.908;6.962;2022-11-15T15:46:55;2.95;;;1.00;;
44486;SDS011;30191;50.908;6.962;2022-11-15T15:49:22;3.47;;;1.15;;
44486;SDS011;30191;50.908;6.962;2022-11-15T15:51:48;5.45;;;1.15;;
44486;SDS011;30191;50.908;6.962;2022-11-15T15:54:14;3.75;;;1.10;;
44486;SDS011;30191;50.908;6.962;2022-11-15T15:56:39;2.00;;;1.00;;
44486;SDS011;30191;50.908;6.962;2022-11-15T15:59:05;3.20;;;1.10;;
44486;SDS011;30191;50.908;6.962;2022-11-15T16:01:30;2.20;;;1.10;;
44486;SDS011;30191;50.908;6.962;2022-11-15T16:03:56;3.53;;;1.48;;
44486;SDS011;30191;50.908;6.962;2022-11-15T16:06:25;2.45;;;1.50;;
44486;SDS011;30191;50.908;6.962;2022-11-15T16:09:00;4.72;;;1.25;;
44486;SDS011;30191;50.908;6.962;2022-11-15T16:11:26;2.38;;;1.20;;
44486;SDS011;30191;50.908;6.962;2022-11-15T16:13:52;2.13;;;0.93;;
44486;SDS011;30191;50.908;6.962;2022-11-15T16:16:18;2.75;;;1.30;;
44486;SDS011;30191;50.908;6.962;2022-11-15T16:18:46;1.95;;;1.10;;
44486;SDS011;30191;50.908;6.962;2022-11-15T16:21:11;2.42;;;1.15;;
44486;SDS011;30191;50.908;6.962;2022-11-15T16:23:37;1.63;;;1.00;;
44486;SDS011;30191;50.908;6.962;2022-11-15T16:26:06;2.40;;;1.05;;
44486;SDS011;30191;50.908;6.962;2022-11-15T16:28:47;2.92;;;1.08;;
44486;SDS011;30191;50.908;6.962;2022-11-15T16:31:13;3.58;;;1.40;;
44486;SDS011;30191;50.908;6.962;2022-11-15T16:33:39;2.65;;;1.42;;
44486;SDS011;30191;50.908;6.962;2022-11-15T16:36:06;3.17;;;1.40;;
44486;SDS011;30191;50.908;6.962;2022-11-15T16:38:47;1.50;;;1.20;;
44486;SDS011;30191;50.908;6.962;2022-11-15T16:41:14;3.45;;;1.35;;
44486;SDS011;30191;50.908;6.962;2022-11-15T16:43:43;2.85;;;1.48;;
44486;SDS011;30191;50.908;6.962;2022-11-15T16:46:13;1.77;;;1.23;;
44486;SDS011;30191;50.908;6.962;2022-11-15T16:48:42;2.35;;;1.20;;
44486;SDS011;30191;50.908;6.962;2022-11-15T16:51:08;1.95;;;1.20;;
44486;SDS011;30191;50.908;6.962;2022-11-15T16:53:34;2.25;;;1.25;;
44486;SDS011;30191;50.908;6.962;2022-11-15T16:56:00;4.00;;;1.20;;
44486;SDS011;30191;50.908;6.962;2022-11-15T16:58:25;1.92;;;1.20;;
44486;SDS011;30191;50.908;6.962;2022-11-15T17:00:52;2.00;;;1.20;;
44486;SDS011;30191;50.908;6.962;2022-11-15T17:03:19;2.92;;;1.30;;
44486;SDS011;30191;50.908;6.962;2022-11-15T17:05:49;1.67;;;1.30;;
44486;SDS011;30191;50.908;6.962;2022-11-15T17:08:15;1.38;;;1.20;;
44486;SDS011;30191;50.908;6.962;2022-11-15T17:10:41;3.00;;;1.40;;
44486;SDS011;30191;50.908;6.962;2022-11-15T17:13:10;1.67;;;1.15;;
44486;SDS011;30191;50.908;6.962;2022-11-15T17:15:37;4.30;;;1.30;;
44486;SDS011;30191;50.908;6.962;2022-11-15T17:18:03;2.75;;;1.30;;
44486;SDS011;30191;50.908;6.962;2022-11-15T17:20:30;1.88;;;1.40;;
44486;SDS011;30191;50.908;6.962;2022-11-15T17:22:56;2.70;;;1.10;;
44486;SDS011;30191;50.908;6.962;2022-11-15T17:25:25;1.80;;;1.20;;
44486;SDS011;30191;50.908;6.962;2022-11-15T17:27:50;1.75;;;1.40;;
44486;SDS011;30191;50.908;6.962;2022-11-15T17:30:16;2.92;;;1.65;;
44486;SDS011;30191;50.908;6.962;2022-11-15T17:32:44;1.92;;;1.60;;
44486;SDS011;30191;50.908;6.962;2022-11-15T17:35:11;3.90;;;1.65;;
44486;SDS011;30191;50.908;6.962;2022-11-15T17:37:37;1.65;;;1.40;;
44486;SDS011;30191;50.908;6.962;2022-11-15T17:40:03;4.82;;;2.15;;
44486;SDS011;30191;50.908;6.962;2022-11-15T17:42:29;2.92;;;1.88;;
44486;SDS011;30191;50.908;6.962;2022-11-15T17:44:56;2.58;;;1.67;;
44486;SDS011;30191;50.908;6.962;2022-11-15T17:47:21;2.38;;;1.63;;